sensor_id;sensor_type;location;lat;lon;timestamp;pressure;altitude;pressure_sealevel;temperature;humidity
13954;BME280;7049;49.444;8.522;2023-04-25T00:04:31;77558.63;;;-3.47;86.25
13954;BME280;7049;49.444;8.522;2023-04-25T00:09:33;77562.81;;;-3.47;85.28
13954;BME280;7049;49.444;8.522;2023-04-25T00:14:35;77562.81;;;-3.47;85.66
13954;BME280;7049;49.444;8.522;2023-04-25T00:19:37;77566.97;;;-3.47;86.01
13954;BME280;7049;49.444;8.522;2023-04-25T00:24:39;77560.72;;;-3.47;86.83
13954;BME280;7049;49.444;8.522;2023-04-25T00:29:40;77558.63;;;-3.47;87.90
13954;BME280;7049;49.444;8.522;2023-04-25T00:34:43;77554.44;;;-3.47;88.42
13954;BME280;7049;49.444;8.522;2023-04-25T00:39:44;77558.63;;;-3.47;88.64
13954;BME280;7049;49.444;8.522;2023-04-25T00:44:46;77552.34;;;-3.47;89.09
13954;BME280;7049;49.444;8.522;2023-04-25T00:49:49;77554.44;;;-3.47;89.33
13954;BME280;7049;49.444;8.522;2023-04-25T00:54:51;77539.78;;;-3.47;90.06
13954;BME280;7049;49.444;8.522;2023-04-25T00:59:53;77550.25;;;-3.47;90.38
13954;BME280;7049;49.444;8.522;2023-04-25T01:04:56;77550.25;;;-3.47;90.34
13954;BME280;7049;49.444;8.522;2023-04-25T01:09:58;77546.06;;;-3.47;90.14
13954;BME280;7049;49.444;8.522;2023-04-25T01:15:00;77543.97;;;-3.47;90.65
13954;BME280;7049;49.444;8.522;2023-04-25T01:20:05;77548.16;;;-3.47;88.90
13954;BME280;7049;49.444;8.522;2023-04-25T01:25:08;77554.44;;;-3.47;87.58
13954;BME280;7049;49.444;8.522;2023-04-25T01:30:11;77552.34;;;-3.47;87.51
13954;BME280;7049;49.444;8.522;2023-04-25T01:35:12;77550.25;;;-3.47;87.40
13954;BME280;7049;49.444;8.522;2023-04-25T01:40:15;77556.53;;;-3.47;87.16
13954;BME280;7049;49.444;8.522;2023-04-25T01:45:17;77571.16;;;-3.47;88.67
13954;BME280;7049;49.444;8.522;2023-04-25T01:50:19;77569.06;;;-3.47;90.26
13954;BME280;7049;49.444;8.522;2023-04-25T01:55:22;77575.34;;;-3.47;91.58
13954;BME280;7049;49.444;8.522;2023-04-25T02:00:24;77571.16;;;-3.47;92.67
13954;BME280;7049;49.444;8.522;2023-04-25T02:05:25;77581.63;;;-3.47;92.49
13954;BME280;7049;49.444;8.522;2023-04-25T02:10:28;77592.09;;;-3.47;92.93
13954;BME280;7049;49.444;8.522;2023-04-25T02:15:30;77590.00;;;-3.47;93.68
13954;BME280;7049;49.444;8.522;2023-04-25T02:20:31;77585.81;;;-3.47;94.06
13954;BME280;7049;49.444;8.522;2023-04-25T02:25:34;77583.72;;;-3.47;94.33
13954;BME280;7049;49.444;8.522;2023-04-25T02:30:35;77598.38;;;-3.47;94.38
13954;BME280;7049;49.444;8.522;2023-04-25T02:35:37;77606.75;;;-3.47;94.91
13954;BME280;7049;49.444;8.522;2023-04-25T02:40:40;77613.00;;;-3.47;95.42
13954;BME280;7049;49.444;8.522;2023-04-25T02:45:41;77606.75;;;-3.47;96.20
13954;BME280;7049;49.444;8.522;2023-04-25T02:50:43;77602.56;;;-3.47;96.50
13954;BME280;7049;49.444;8.522;2023-04-25T02:55:46;77604.66;;;-3.47;96.46
13954;BME280;7049;49.444;8.522;2023-04-25T03:00:47;77600.47;;;-3.47;96.76
13954;BME280;7049;49.444;8.522;2023-04-25T03:05:49;77598.38;;;-3.47;96.59
13954;BME280;7049;49.444;8.522;2023-04-25T03:10:52;77596.28;;;-3.47;96.02
13954;BME280;7049;49.444;8.522;2023-04-25T03:15:55;77600.47;;;-3.47;96.30
13954;BME280;7049;49.444;8.522;2023-04-25T03:20:57;77602.56;;;-3.47;96.59
13954;BME280;7049;49.444;8.522;2023-04-25T03:26:00;77598.38;;;-3.47;96.65
13954;BME280;7049;49.444;8.522;2023-04-25T03:31:01;77608.84;;;-3.47;96.47
13954;BME280;7049;49.444;8.522;2023-04-25T03:36:03;77600.47;;;-3.47;96.71
13954;BME280;7049;49.444;8.522;2023-04-25T03:41:06;77610.91;;;-3.47;96.62
13954;BME280;7049;49.444;8.522;2023-04-25T03:46:07;77604.66;;;-3.47;96.75
13954;BME280;7049;49.444;8.522;2023-04-25T03:51:09;77617.19;;;-3.47;97.11
13954;BME280;7049;49.444;8.522;2023-04-25T03:56:12;77621.38;;;-3.47;97.71
13954;BME280;7049;49.444;8.522;2023-04-25T04:01:13;77631.84;;;-3.47;97.01
13954;BME280;7049;49.444;8.522;2023-04-25T04:06:15;77638.13;;;-3.47;97.31
13954;BME280;7049;49.444;8.522;2023-04-25T04:11:17;77631.84;;;-3.47;97.02
13954;BME280;7049;49.444;8.522;2023-04-25T04:16:19;77638.13;;;-3.47;96.94
13954;BME280;7049;49.444;8.522;2023-04-25T04:21:20;77633.94;;;-3.47;97.51
13954;BME280;7049;49.444;8.522;2023-04-25T04:26:23;77638.13;;;-3.47;98.10
13954;BME280;7049;49.444;8.522;2023-04-25T04:31:26;77629.75;;;-3.47;98.16
13954;BME280;7049;49.444;8.522;2023-04-25T04:36:27;77631.84;;;-3.47;98.12
13954;BME280;7049;49.444;8.522;2023-04-25T04:41:30;77631.84;;;-3.47;98.22
13954;BME280;7049;49.444;8.522;2023-04-25T04:46:32;77631.84;;;-3.47;98.26
13954;BME280;7049;49.444;8.522;2023-04-25T04:51:37;77638.13;;;-3.47;98.36
13954;BME280;7049;49.444;8.522;2023-04-25T04:56:40;77644.41;;;-3.47;98.71
13954;BME280;7049;49.444;8.522;2023-04-25T05:01:42;77650.69;;;-3.47;98.62
13954;BME280;7049;49.444;8.522;2023-04-25T05:06:44;77650.69;;;-3.47;98.63
13954;BME280;7049;49.444;8.522;2023-04-25T05:11:46;77656.94;;;-3.47;98.01
13954;BME280;7049;49.444;8.522;2023-04-25T05:16:48;77652.78;;;-3.47;98.33
13954;BME280;7049;49.444;8.522;2023-04-25T05:21:49;77650.69;;;-3.47;98.43
13954;BME280;7049;49.444;8.522;2023-04-25T05:26:52;77648.59;;;-3.47;98.67
13954;BME280;7049;49.444;8.522;2023-04-25T05:31:54;77646.50;;;-3.47;98.66
13954;BME280;7049;49.444;8.522;2023-04-25T05:36:55;77644.41;;;-3.47;98.67
13954;BME280;7049;49.444;8.522;2023-04-25T05:41:58;77648.59;;;-3.47;98.45
13954;BME280;7049;49.444;8.522;2023-04-25T05:47:01;77646.50;;;-3.47;98.33
13954;BME280;7049;49.444;8.522;2023-04-25T05:52:04;77646.50;;;-3.47;98.55
13954;BME280;7049;49.444;8.522;2023-04-25T05:57:07;77648.59;;;-3.47;98.58
13954;BME280;7049;49.444;8.522;2023-04-25T06:02:08;77646.50;;;-3.47;98.57
13954;BME280;7049;49.444;8.522;2023-04-25T06:07:10;77646.50;;;-3.47;98.94
13954;BME280;7049;49.444;8.522;2023-04-25T06:12:13;77648.59;;;-3.47;98.29
13954;BME280;7049;49.444;8.522;2023-04-25T06:17:15;77646.50;;;-3.47;97.97
13954;BME280;7049;49.444;8.522;2023-04-25T06:22:16;77644.41;;;-3.47;97.90
13954;BME280;7049;49.444;8.522;2023-04-25T06:27:19;77642.31;;;-3.47;97.84
13954;BME280;7049;49.444;8.522;2023-04-25T06:32:20;77644.41;;;-3.47;97.56
13954;BME280;7049;49.444;8.522;2023-04-25T06:37:22;77646.50;;;-3.47;97.32
13954;BME280;7049;49.444;8.522;2023-04-25T06:42:24;77650.69;;;-3.47;96.66
13954;BME280;7049;49.444;8.522;2023-04-25T06:47:26;77652.78;;;-3.47;96.70
13954;BME280;7049;49.444;8.522;2023-04-25T06:52:27;77663.22;;;-3.47;96.12
13954;BME280;7049;49.444;8.522;2023-04-25T06:57:30;77675.78;;;-3.47;93.90
13954;BME280;7049;49.444;8.522;2023-04-25T07:02:32;77679.97;;;-3.47;93.74
13954;BME280;7049;49.444;8.522;2023-04-25T07:07:33;77694.63;;;-3.47;94.45
13954;BME280;7049;49.444;8.522;2023-04-25T07:12:36;77692.53;;;-3.47;94.07
13954;BME280;7049;49.444;8.522;2023-04-25T07:17:37;77694.63;;;-3.47;94.18
13954;BME280;7049;49.444;8.522;2023-04-25T07:22:39;77692.53;;;-3.47;94.03
13954;BME280;7049;49.444;8.522;2023-04-25T07:27:42;77684.16;;;-3.47;92.97
13954;BME280;7049;49.444;8.522;2023-04-25T07:32:43;77684.16;;;-3.47;92.01
13954;BME280;7049;49.444;8.522;2023-04-25T07:37:45;77679.97;;;-3.47;92.34
13954;BME280;7049;49.444;8.522;2023-04-25T07:42:48;77677.88;;;-3.47;92.64
13954;BME280;7049;49.444;8.522;2023-04-25T07:47:49;77679.97;;;-3.47;89.86
13954;BME280;7049;49.444;8.522;2023-04-25T07:52:51;77684.16;;;-3.47;88.03
13954;BME280;7049;49.444;8.522;2023-04-25T07:57:54;77692.53;;;-3.47;87.54
13954;BME280;7049;49.444;8.522;2023-04-25T08:02:55;77703.00;;;-3.47;87.46
13954;BME280;7049;49.444;8.522;2023-04-25T08:07:56;77711.34;;;-3.47;85.09
13954;BME280;7049;49.444;8.522;2023-04-25T08:12:59;77705.09;;;-3.47;85.42
13954;BME280;7049;49.444;8.522;2023-04-25T08:18:01;77700.91;;;-3.47;85.41
13954;BME280;7049;49.444;8.522;2023-04-25T08:23:02;77684.16;;;-3.47;84.44
13954;BME280;7049;49.444;8.522;2023-04-25T08:28:05;77677.88;;;-3.47;84.72
13954;BME280;7049;49.444;8.522;2023-04-25T08:33:07;77661.13;;;-3.47;84.49
13954;BME280;7049;49.444;8.522;2023-04-25T08:38:08;77623.47;;;-3.47;83.61
13954;BME280;7049;49.444;8.522;2023-04-25T08:43:13;77587.91;;;-3.47;83.57
13954;BME280;7049;49.444;8.522;2023-04-25T08:48:16;77571.16;;;-3.47;81.45
13954;BME280;7049;49.444;8.522;2023-04-25T08:53:21;77541.88;;;-3.47;79.79
13954;BME280;7049;49.444;8.522;2023-04-25T08:58:25;77504.22;;;-3.47;77.87
13954;BME280;7049;49.444;8.522;2023-04-25T09:03:27;77483.28;;;-3.47;77.46
13954;BME280;7049;49.444;8.522;2023-04-25T09:08:29;77458.19;;;-3.47;75.49
13954;BME280;7049;49.444;8.522;2023-04-25T09:13:32;77441.44;;;-3.47;74.57
13954;BME280;7049;49.444;8.522;2023-04-25T09:18:34;77433.06;;;-3.47;73.28
13954;BME280;7049;49.444;8.522;2023-04-25T09:23:40;77422.63;;;-3.47;71.65
13954;BME280;7049;49.444;8.522;2023-04-25T09:28:43;77384.97;;;-3.47;71.63
13954;BME280;7049;49.444;8.522;2023-04-25T09:33:46;77328.47;;;-3.47;69.54
13954;BME280;7049;49.444;8.522;2023-04-25T09:38:47;77307.53;;;-3.47;65.01
13954;BME280;7049;49.444;8.522;2023-04-25T09:43:50;77299.19;;;-3.47;64.98
13954;BME280;7049;49.444;8.522;2023-04-25T09:48:52;77290.81;;;-3.47;63.97
13954;BME280;7049;49.444;8.522;2023-04-25T09:53:54;77280.34;;;-3.47;62.51
13954;BME280;7049;49.444;8.522;2023-04-25T09:58:57;77295.00;;;-3.47;60.31
13954;BME280;7049;49.444;8.522;2023-04-25T10:03:59;77301.28;;;-3.47;60.61
13954;BME280;7049;49.444;8.522;2023-04-25T10:09:02;77303.38;;;-3.47;60.84
13954;BME280;7049;49.444;8.522;2023-04-25T10:14:06;77311.72;;;-3.47;58.69
13954;BME280;7049;49.444;8.522;2023-04-25T10:19:07;77305.47;;;-3.47;58.71
13954;BME280;7049;49.444;8.522;2023-04-25T10:24:08;77261.53;;;-3.47;57.52
13954;BME280;7049;49.444;8.522;2023-04-25T10:29:11;77215.50;;;-3.47;55.86
13954;BME280;7049;49.444;8.522;2023-04-25T10:34:13;77209.22;;;-3.47;53.09
13954;BME280;7049;49.444;8.522;2023-04-25T10:39:21;77228.03;;;-3.47;51.49
13954;BME280;7049;49.444;8.522;2023-04-25T10:44:26;77257.34;;;-3.47;52.48
13954;BME280;7049;49.444;8.522;2023-04-25T10:49:29;77278.25;;;-3.47;53.39
13954;BME280;7049;49.444;8.522;2023-04-25T10:54:31;77301.28;;;-3.47;54.63
13954;BME280;7049;49.444;8.522;2023-04-25T10:59:34;77309.63;;;-3.47;54.48
13954;BME280;7049;49.444;8.522;2023-04-25T11:04:37;77313.81;;;-3.47;52.96
13954;BME280;7049;49.444;8.522;2023-04-25T11:09:40;77320.09;;;-3.47;52.94
13954;BME280;7049;49.444;8.522;2023-04-25T11:14:43;77349.38;;;-3.47;52.38
13954;BME280;7049;49.444;8.522;2023-04-25T11:19:47;77366.13;;;-3.47;53.36
13954;BME280;7049;49.444;8.522;2023-04-25T11:24:49;77384.97;;;-3.47;52.23
13954;BME280;7049;49.444;8.522;2023-04-25T11:29:52;77403.78;;;-3.47;53.03
13954;BME280;7049;49.444;8.522;2023-04-25T11:34:53;77410.06;;;-3.47;51.38
13954;BME280;7049;49.444;8.522;2023-04-25T11:39:55;77401.69;;;-3.47;53.51
13954;BME280;7049;49.444;8.522;2023-04-25T11:44:58;77391.22;;;-3.47;53.28
13954;BME280;7049;49.444;8.522;2023-04-25T11:50:00;77399.59;;;-3.47;52.91
13954;BME280;7049;49.444;8.522;2023-04-25T11:55:04;77376.59;;;-3.47;53.68
13954;BME280;7049;49.444;8.522;2023-04-25T12:00:11;77368.22;;;-3.47;51.67
13954;BME280;7049;49.444;8.522;2023-04-25T12:05:14;77372.41;;;-3.47;51.64
13954;BME280;7049;49.444;8.522;2023-04-25T12:10:17;77364.03;;;-3.47;52.36
13954;BME280;7049;49.444;8.522;2023-04-25T12:15:24;77361.94;;;-3.47;51.95
13954;BME280;7049;49.444;8.522;2023-04-25T12:20:26;77366.13;;;-3.47;48.86
13954;BME280;7049;49.444;8.522;2023-04-25T12:25:35;77378.69;;;-3.47;49.27
13954;BME280;7049;49.444;8.522;2023-04-25T12:30:56;77391.22;;;-3.47;47.70
13954;BME280;7049;49.444;8.522;2023-04-25T12:35:59;77391.22;;;-3.47;48.08
13954;BME280;7049;49.444;8.522;2023-04-25T12:41:04;77399.59;;;-3.47;46.61
13954;BME280;7049;49.444;8.522;2023-04-25T12:46:07;77387.06;;;-3.47;46.30
13954;BME280;7049;49.444;8.522;2023-04-25T12:51:08;77387.06;;;-3.47;45.94
13954;BME280;7049;49.444;8.522;2023-04-25T12:56:10;77384.97;;;-3.47;46.71
13954;BME280;7049;49.444;8.522;2023-04-25T13:01:13;77395.41;;;-3.47;47.11
13954;BME280;7049;49.444;8.522;2023-04-25T13:06:15;77393.31;;;-3.47;47.88
13954;BME280;7049;49.444;8.522;2023-04-25T13:11:16;77387.06;;;-3.47;48.15
13954;BME280;7049;49.444;8.522;2023-04-25T13:16:19;77387.06;;;-3.47;48.25
13954;BME280;7049;49.444;8.522;2023-04-25T13:21:21;77391.22;;;-3.47;48.34
13954;BME280;7049;49.444;8.522;2023-04-25T13:26:23;77403.78;;;-3.47;47.93
13954;BME280;7049;49.444;8.522;2023-04-25T13:31:25;77401.69;;;-3.47;48.71
13954;BME280;7049;49.444;8.522;2023-04-25T13:36:27;77412.16;;;-3.47;47.88
13954;BME280;7049;49.444;8.522;2023-04-25T13:41:29;77420.53;;;-3.47;48.46
13954;BME280;7049;49.444;8.522;2023-04-25T13:46:31;77422.63;;;-3.47;48.91
13954;BME280;7049;49.444;8.522;2023-04-25T13:51:34;77433.06;;;-3.47;47.99
13954;BME280;7049;49.444;8.522;2023-04-25T13:56:35;77441.44;;;-3.47;47.41
13954;BME280;7049;49.444;8.522;2023-04-25T14:01:38;77443.53;;;-3.47;48.21
13954;BME280;7049;49.444;8.522;2023-04-25T14:06:39;77449.81;;;-3.47;47.81
13954;BME280;7049;49.444;8.522;2023-04-25T14:11:41;77454.00;;;-3.47;48.47
13954;BME280;7049;49.444;8.522;2023-04-25T14:16:44;77451.91;;;-3.47;48.42
13954;BME280;7049;49.444;8.522;2023-04-25T14:21:45;77449.81;;;-3.47;48.39
13954;BME280;7049;49.444;8.522;2023-04-25T14:26:47;77462.38;;;-3.47;47.35
13954;BME280;7049;49.444;8.522;2023-04-25T14:31:50;77479.09;;;-3.47;46.42
13954;BME280;7049;49.444;8.522;2023-04-25T14:36:52;77495.84;;;-3.47;47.89
13954;BME280;7049;49.444;8.522;2023-04-25T14:41:53;77508.41;;;-3.47;47.94
13954;BME280;7049;49.444;8.522;2023-04-25T14:46:56;77529.31;;;-3.47;47.25
13954;BME280;7049;49.444;8.522;2023-04-25T14:51:58;77537.69;;;-3.47;47.30
13954;BME280;7049;49.444;8.522;2023-04-25T14:57:00;77548.16;;;-3.47;47.86
13954;BME280;7049;49.444;8.522;2023-04-25T15:02:03;77548.16;;;-3.47;48.00
13954;BME280;7049;49.444;8.522;2023-04-25T15:07:05;77533.50;;;-3.47;47.59
13954;BME280;7049;49.444;8.522;2023-04-25T15:12:07;77516.78;;;-3.47;48.31
13954;BME280;7049;49.444;8.522;2023-04-25T15:17:09;77500.03;;;-3.47;47.00
13954;BME280;7049;49.444;8.522;2023-04-25T15:22:13;77485.38;;;-3.47;45.65
13954;BME280;7049;49.444;8.522;2023-04-25T15:27:15;77460.28;;;-3.47;44.46
13954;BME280;7049;49.444;8.522;2023-04-25T15:32:18;77464.47;;;-3.47;44.64
13954;BME280;7049;49.444;8.522;2023-04-25T15:37:20;77479.09;;;-3.47;44.57
13954;BME280;7049;49.444;8.522;2023-04-25T15:42:21;77489.56;;;-3.47;43.93
13954;BME280;7049;49.444;8.522;2023-04-25T15:47:24;77508.41;;;-3.47;43.51
13954;BME280;7049;49.444;8.522;2023-04-25T15:52:26;77527.22;;;-3.47;43.28
13954;BME280;7049;49.444;8.522;2023-04-25T15:57:28;77541.88;;;-3.47;42.57
13954;BME280;7049;49.444;8.522;2023-04-25T16:02:30;77550.25;;;-3.47;43.15
13954;BME280;7049;49.444;8.522;2023-04-25T16:07:32;77566.97;;;-3.47;43.22
13954;BME280;7049;49.444;8.522;2023-04-25T16:12:33;77579.53;;;-3.47;42.46
13954;BME280;7049;49.444;8.522;2023-04-25T16:17:36;77585.81;;;-3.47;42.83
13954;BME280;7049;49.444;8.522;2023-04-25T16:22:39;77587.91;;;-3.47;43.30
13954;BME280;7049;49.444;8.522;2023-04-25T16:27:41;77596.28;;;-3.47;43.30
13954;BME280;7049;49.444;8.522;2023-04-25T16:32:43;77600.47;;;-3.47;43.24
13954;BME280;7049;49.444;8.522;2023-04-25T16:37:45;77610.91;;;-3.47;43.25
13954;BME280;7049;49.444;8.522;2023-04-25T16:42:46;77617.19;;;-3.47;43.05
13954;BME280;7049;49.444;8.522;2023-04-25T16:47:49;77621.38;;;-3.47;43.38
13954;BME280;7049;49.444;8.522;2023-04-25T16:52:51;77631.84;;;-3.47;44.13
13954;BME280;7049;49.444;8.522;2023-04-25T16:57:53;77640.22;;;-3.47;44.77
13954;BME280;7049;49.444;8.522;2023-04-25T17:02:56;77650.69;;;-3.47;43.67
13954;BME280;7049;49.444;8.522;2023-04-25T17:07:58;77663.22;;;-3.47;42.88
13954;BME280;7049;49.444;8.522;2023-04-25T17:13:00;77677.88;;;-3.47;41.97
13954;BME280;7049;49.444;8.522;2023-04-25T17:18:03;77692.53;;;-3.47;42.14
13954;BME280;7049;49.444;8.522;2023-04-25T17:23:05;77700.91;;;-3.47;42.80
13954;BME280;7049;49.444;8.522;2023-04-25T17:28:06;77709.25;;;-3.47;43.04
13954;BME280;7049;49.444;8.522;2023-04-25T17:33:09;77717.63;;;-3.47;42.94
13954;BME280;7049;49.444;8.522;2023-04-25T17:38:10;77736.47;;;-3.47;42.20
13954;BME280;7049;49.444;8.522;2023-04-25T17:43:13;77746.94;;;-3.47;41.48
13954;BME280;7049;49.444;8.522;2023-04-25T17:48:16;77769.94;;;-3.47;41.47
13954;BME280;7049;49.444;8.522;2023-04-25T17:53:18;77776.22;;;-3.47;41.18
13954;BME280;7049;49.444;8.522;2023-04-25T17:58:19;77782.50;;;-3.47;41.13
13954;BME280;7049;49.444;8.522;2023-04-25T18:03:22;77792.97;;;-3.47;41.25
13954;BME280;7049;49.444;8.522;2023-04-25T18:08:24;77803.41;;;-3.47;41.72
13954;BME280;7049;49.444;8.522;2023-04-25T18:13:25;77820.16;;;-3.47;41.73
13954;BME280;7049;49.444;8.522;2023-04-25T18:18:28;77826.44;;;-3.47;42.07
13954;BME280;7049;49.444;8.522;2023-04-25T18:23:32;77839.00;;;-3.47;42.36
13954;BME280;7049;49.444;8.522;2023-04-25T18:28:34;77853.66;;;-3.47;41.36
13954;BME280;7049;49.444;8.522;2023-04-25T18:33:36;77864.09;;;-3.47;41.71
13954;BME280;7049;49.444;8.522;2023-04-25T18:38:38;77872.47;;;-3.47;42.00
13954;BME280;7049;49.444;8.522;2023-04-25T18:43:39;77889.22;;;-3.47;41.96
13954;BME280;7049;49.444;8.522;2023-04-25T18:48:44;77901.78;;;-3.47;41.32
13954;BME280;7049;49.444;8.522;2023-04-25T18:53:45;77918.50;;;-3.47;40.22
13954;BME280;7049;49.444;8.522;2023-04-25T18:58:47;77926.88;;;-3.47;39.65
13954;BME280;7049;49.444;8.522;2023-04-25T19:03:51;77939.44;;;-3.47;39.96
13954;BME280;7049;49.444;8.522;2023-04-25T19:08:55;77943.63;;;-3.47;40.00
13954;BME280;7049;49.444;8.522;2023-04-25T19:13:57;77947.81;;;-3.47;40.00
13954;BME280;7049;49.444;8.522;2023-04-25T19:19:01;77962.47;;;-3.47;40.17
13954;BME280;7049;49.444;8.522;2023-04-25T19:24:03;77968.72;;;-3.47;40.98
13954;BME280;7049;49.444;8.522;2023-04-25T19:29:10;77972.91;;;-3.47;40.63
13954;BME280;7049;49.444;8.522;2023-04-25T19:34:14;77981.28;;;-3.47;40.80
13954;BME280;7049;49.444;8.522;2023-04-25T19:39:16;77993.84;;;-3.47;41.24
13954;BME280;7049;49.444;8.522;2023-04-25T19:44:17;77995.94;;;-3.47;41.80
13954;BME280;7049;49.444;8.522;2023-04-25T19:49:20;78006.41;;;-3.47;41.76
13954;BME280;7049;49.444;8.522;2023-04-25T19:54:22;78027.31;;;-3.47;42.16
13954;BME280;7049;49.444;8.522;2023-04-25T19:59:23;78031.50;;;-3.47;42.91
13954;BME280;7049;49.444;8.522;2023-04-25T20:04:26;78041.97;;;-3.47;43.61
13954;BME280;7049;49.444;8.522;2023-04-25T20:09:27;78056.63;;;-3.47;43.79
13954;BME280;7049;49.444;8.522;2023-04-25T20:14:29;78052.44;;;-3.47;43.83
13954;BME280;7049;49.444;8.522;2023-04-25T20:19:32;78060.81;;;-3.47;43.16
13954;BME280;7049;49.444;8.522;2023-04-25T20:24:33;78073.38;;;-3.47;43.41
13954;BME280;7049;49.444;8.522;2023-04-25T20:29:35;78075.47;;;-3.47;42.99
13954;BME280;7049;49.444;8.522;2023-04-25T20:34:37;78090.09;;;-3.47;42.95
13954;BME280;7049;49.444;8.522;2023-04-25T20:39:39;78096.38;;;-3.47;43.61
13954;BME280;7049;49.444;8.522;2023-04-25T20:44:40;78098.47;;;-3.47;43.52
13954;BME280;7049;49.444;8.522;2023-04-25T20:49:43;78113.13;;;-3.47;43.72
13954;BME280;7049;49.444;8.522;2023-04-25T20:54:45;78131.97;;;-3.47;43.21
13954;BME280;7049;49.444;8.522;2023-04-25T20:59:49;78136.16;;;-3.47;43.71
13954;BME280;7049;49.444;8.522;2023-04-25T21:04:53;78138.22;;;-3.47;44.34
13954;BME280;7049;49.444;8.522;2023-04-25T21:09:54;78148.69;;;-3.47;44.41
13954;BME280;7049;49.444;8.522;2023-04-25T21:14:56;78159.16;;;-3.47;44.55
13954;BME280;7049;49.444;8.522;2023-04-25T21:20:01;78171.72;;;-3.47;44.98
13954;BME280;7049;49.444;8.522;2023-04-25T21:25:09;78178.00;;;-3.47;45.04
13954;BME280;7049;49.444;8.522;2023-04-25T21:30:17;78188.47;;;-3.47;44.93
13954;BME280;7049;49.444;8.522;2023-04-25T21:35:23;78194.75;;;-3.47;45.73
13954;BME280;7049;49.444;8.522;2023-04-25T21:40:25;78201.00;;;-3.47;45.99
13954;BME280;7049;49.444;8.522;2023-04-25T21:45:26;78211.47;;;-3.47;46.37
13954;BME280;7049;49.444;8.522;2023-04-25T21:50:30;78228.22;;;-3.47;46.67
13954;BME280;7049;49.444;8.522;2023-04-25T21:55:31;78242.88;;;-3.47;47.44
13954;BME280;7049;49.444;8.522;2023-04-25T22:00:33;78257.53;;;-3.47;49.01
13954;BME280;7049;49.444;8.522;2023-04-25T22:05:36;78265.88;;;-3.47;50.71
13954;BME280;7049;49.444;8.522;2023-04-25T22:10:37;78280.53;;;-3.47;52.74
13954;BME280;7049;49.444;8.522;2023-04-25T22:15:39;78291.00;;;-3.47;54.37
13954;BME280;7049;49.444;8.522;2023-04-25T22:20:42;78299.38;;;-3.47;56.05
13954;BME280;7049;49.444;8.522;2023-04-25T22:25:44;78316.13;;;-3.47;56.92
13954;BME280;7049;49.444;8.522;2023-04-25T22:30:46;78324.47;;;-3.47;57.92
13954;BME280;7049;49.444;8.522;2023-04-25T22:35:48;78337.03;;;-3.47;59.28
13954;BME280;7049;49.444;8.522;2023-04-25T22:40:50;78347.50;;;-3.47;59.88
13954;BME280;7049;49.444;8.522;2023-04-25T22:45:52;78357.97;;;-3.47;60.71
13954;BME280;7049;49.444;8.522;2023-04-25T22:51:01;78368.44;;;-3.47;61.35
13954;BME280;7049;49.444;8.522;2023-04-25T22:56:03;78378.91;;;-3.47;62.05
13954;BME280;7049;49.444;8.522;2023-04-25T23:01:05;78391.47;;;-3.47;62.95
13954;BME280;7049;49.444;8.522;2023-04-25T23:06:08;78397.72;;;-3.47;63.41
13954;BME280;7049;49.444;8.522;2023-04-25T23:11:10;78399.81;;;-3.47;64.58
13954;BME280;7049;49.444;8.522;2023-04-25T23:16:13;78416.56;;;-3.47;65.13
13954;BME280;7049;49.444;8.522;2023-04-25T23:21:16;78424.94;;;-3.47;66.04
13954;BME280;7049;49.444;8.522;2023-04-25T23:26:17;78429.13;;;-3.47;67.09
13954;BME280;7049;49.444;8.522;2023-04-25T23:31:20;78431.22;;;-3.47;68.27
13954;BME280;7049;49.444;8.522;2023-04-25T23:36:23;78435.41;;;-3.47;68.84
13954;BME280;7049;49.444;8.522;2023-04-25T23:41:26;78435.41;;;-3.47;68.64
13954;BME280;7049;49.444;8.522;2023-04-25T23:46:27;78445.88;;;-3.47;69.21
13954;BME280;7049;49.444;8.522;2023-04-25T23:51:30;78445.88;;;-3.47;69.75
13954;BME280;7049;49.444;8.522;2023-04-25T23:56:32;78452.16;;;-3.47;70.17
